sensor_id;sensor_type;location;lat;lon;timestamp;temperature;humidity
65989;HTU21D;53592;51.402;6.054;2023-05-10T00:01:55;15.54;83.02
65989;HTU21D;53592;51.402;6.054;2023-05-10T00:04:20;15.55;83.07
65989;HTU21D;53592;51.402;6.054;2023-05-10T00:06:47;15.57;82.98
65989;HTU21D;53592;51.402;6.054;2023-05-10T00:09:12;15.57;82.85
65989;HTU21D;53592;51.402;6.054;2023-05-10T00:11:38;15.55;82.71
65989;HTU21D;53592;51.402;6.054;2023-05-10T00:14:03;15.55;82.75
65989;HTU21D;53592;51.402;6.054;2023-05-10T00:16:29;15.59;82.62
65989;HTU21D;53592;51.402;6.054;2023-05-10T00:18:54;15.61;82.47
65989;HTU21D;53592;51.402;6.054;2023-05-10T00:21:20;15.61;82.42
65989;HTU21D;53592;51.402;6.054;2023-05-10T00:23:45;15.59;82.37
65989;HTU21D;53592;51.402;6.054;2023-05-10T00:26:11;15.58;82.38
65989;HTU21D;53592;51.402;6.054;2023-05-10T00:28:36;15.57;82.29
65989;HTU21D;53592;51.402;6.054;2023-05-10T00:31:02;15.57;82.33
65989;HTU21D;53592;51.402;6.054;2023-05-10T00:33:27;15.56;82.31
65989;HTU21D;53592;51.402;6.054;2023-05-10T00:35:53;15.56;82.29
65989;HTU21D;53592;51.402;6.054;2023-05-10T00:38:18;15.54;82.28
65989;HTU21D;53592;51.402;6.054;2023-05-10T00:40:44;15.56;82.17
65989;HTU21D;53592;51.402;6.054;2023-05-10T00:43:09;15.53;82.10
65989;HTU21D;53592;51.402;6.054;2023-05-10T00:45:35;15.51;82.20
65989;HTU21D;53592;51.402;6.054;2023-05-10T00:48:02;15.49;82.23
65989;HTU21D;53592;51.402;6.054;2023-05-10T00:50:30;15.46;82.37
65989;HTU21D;53592;51.402;6.054;2023-05-10T00:52:58;15.49;82.42
65989;HTU21D;53592;51.402;6.054;2023-05-10T00:55:24;15.48;82.40
65989;HTU21D;53592;51.402;6.054;2023-05-10T00:57:49;15.48;82.50
65989;HTU21D;53592;51.402;6.054;2023-05-10T01:00:15;15.45;82.65
65989;HTU21D;53592;51.402;6.054;2023-05-10T01:02:45;15.45;82.68
65989;HTU21D;53592;51.402;6.054;2023-05-10T01:05:12;15.45;82.52
65989;HTU21D;53592;51.402;6.054;2023-05-10T01:07:37;15.45;82.57
65989;HTU21D;53592;51.402;6.054;2023-05-10T01:10:05;15.46;82.45
65989;HTU21D;53592;51.402;6.054;2023-05-10T01:12:31;15.42;82.49
65989;HTU21D;53592;51.402;6.054;2023-05-10T01:14:57;15.41;82.52
65989;HTU21D;53592;51.402;6.054;2023-05-10T01:17:24;15.40;82.51
65989;HTU21D;53592;51.402;6.054;2023-05-10T01:19:50;15.39;82.46
65989;HTU21D;53592;51.402;6.054;2023-05-10T01:25:38;15.34;82.44
65989;HTU21D;53592;51.402;6.054;2023-05-10T01:33:47;15.31;82.49
65989;HTU21D;53592;51.402;6.054;2023-05-10T01:39:15;15.32;82.33
65989;HTU21D;53592;51.402;6.054;2023-05-10T01:44:16;15.24;82.75
65989;HTU21D;53592;51.402;6.054;2023-05-10T01:46:50;15.24;82.71
65989;HTU21D;53592;51.402;6.054;2023-05-10T01:49:26;15.22;82.67
65989;HTU21D;53592;51.402;6.054;2023-05-10T01:51:54;15.13;83.14
65989;HTU21D;53592;51.402;6.054;2023-05-10T01:54:23;15.10;83.34
65989;HTU21D;53592;51.402;6.054;2023-05-10T01:56:55;15.03;83.80
65989;HTU21D;53592;51.402;6.054;2023-05-10T01:59:22;15.02;83.96
65989;HTU21D;53592;51.402;6.054;2023-05-10T02:01:52;14.98;83.99
65989;HTU21D;53592;51.402;6.054;2023-05-10T02:04:22;14.96;84.19
65989;HTU21D;53592;51.402;6.054;2023-05-10T02:06:51;14.98;84.36
65989;HTU21D;53592;51.402;6.054;2023-05-10T02:09:20;14.99;84.24
65989;HTU21D;53592;51.402;6.054;2023-05-10T02:11:48;14.99;84.24
65989;HTU21D;53592;51.402;6.054;2023-05-10T02:14:16;14.97;84.17
65989;HTU21D;53592;51.402;6.054;2023-05-10T02:16:44;14.96;84.26
65989;HTU21D;53592;51.402;6.054;2023-05-10T02:19:12;15.00;84.10
65989;HTU21D;53592;51.402;6.054;2023-05-10T02:21:40;14.99;84.24
65989;HTU21D;53592;51.402;6.054;2023-05-10T02:24:08;15.01;84.14
65989;HTU21D;53592;51.402;6.054;2023-05-10T02:26:36;15.01;84.16
65989;HTU21D;53592;51.402;6.054;2023-05-10T02:29:05;14.99;84.26
65989;HTU21D;53592;51.402;6.054;2023-05-10T02:31:33;14.97;84.46
65989;HTU21D;53592;51.402;6.054;2023-05-10T02:34:01;14.92;84.60
65989;HTU21D;53592;51.402;6.054;2023-05-10T02:36:29;14.89;84.90
65989;HTU21D;53592;51.402;6.054;2023-05-10T02:38:58;14.89;84.97
65989;HTU21D;53592;51.402;6.054;2023-05-10T02:41:25;14.92;84.91
65989;HTU21D;53592;51.402;6.054;2023-05-10T02:43:57;14.95;84.76
65989;HTU21D;53592;51.402;6.054;2023-05-10T02:46:25;14.99;84.59
65989;HTU21D;53592;51.402;6.054;2023-05-10T02:48:50;15.02;84.26
65989;HTU21D;53592;51.402;6.054;2023-05-10T02:51:19;15.02;84.11
65989;HTU21D;53592;51.402;6.054;2023-05-10T02:53:49;15.07;83.96
65989;HTU21D;53592;51.402;6.054;2023-05-10T02:56:25;15.09;83.84
65989;HTU21D;53592;51.402;6.054;2023-05-10T02:58:51;15.04;84.00
65989;HTU21D;53592;51.402;6.054;2023-05-10T03:01:17;15.01;84.32
65989;HTU21D;53592;51.402;6.054;2023-05-10T03:03:42;15.00;84.50
65989;HTU21D;53592;51.402;6.054;2023-05-10T03:06:08;15.00;84.64
65989;HTU21D;53592;51.402;6.054;2023-05-10T03:08:35;15.02;84.53
65989;HTU21D;53592;51.402;6.054;2023-05-10T03:11:28;15.04;84.53
65989;HTU21D;53592;51.402;6.054;2023-05-10T03:17:11;14.97;84.69
65989;HTU21D;53592;51.402;6.054;2023-05-10T03:20:02;14.94;84.87
65989;HTU21D;53592;51.402;6.054;2023-05-10T03:22:41;14.93;84.95
65989;HTU21D;53592;51.402;6.054;2023-05-10T03:25:11;14.94;84.98
65989;HTU21D;53592;51.402;6.054;2023-05-10T03:27:40;14.95;84.91
65989;HTU21D;53592;51.402;6.054;2023-05-10T03:30:12;14.96;84.90
65989;HTU21D;53592;51.402;6.054;2023-05-10T03:32:38;14.99;84.87
65989;HTU21D;53592;51.402;6.054;2023-05-10T03:35:11;15.01;84.84
65989;HTU21D;53592;51.402;6.054;2023-05-10T03:37:38;15.02;84.71
65989;HTU21D;53592;51.402;6.054;2023-05-10T03:40:06;15.01;84.81
65989;HTU21D;53592;51.402;6.054;2023-05-10T03:42:32;14.99;84.80
65989;HTU21D;53592;51.402;6.054;2023-05-10T03:44:57;14.98;84.94
65989;HTU21D;53592;51.402;6.054;2023-05-10T03:47:23;14.94;84.99
65989;HTU21D;53592;51.402;6.054;2023-05-10T03:49:48;14.89;85.20
65989;HTU21D;53592;51.402;6.054;2023-05-10T03:52:14;14.89;85.16
65989;HTU21D;53592;51.402;6.054;2023-05-10T03:54:39;14.87;85.18
65989;HTU21D;53592;51.402;6.054;2023-05-10T03:57:05;14.89;84.93
65989;HTU21D;53592;51.402;6.054;2023-05-10T03:59:30;14.85;84.84
65989;HTU21D;53592;51.402;6.054;2023-05-10T04:01:56;14.80;84.64
65989;HTU21D;53592;51.402;6.054;2023-05-10T04:04:21;14.74;84.83
65989;HTU21D;53592;51.402;6.054;2023-05-10T04:06:48;14.77;84.87
65989;HTU21D;53592;51.402;6.054;2023-05-10T04:09:14;14.77;84.84
65989;HTU21D;53592;51.402;6.054;2023-05-10T04:11:39;14.77;84.91
65989;HTU21D;53592;51.402;6.054;2023-05-10T04:14:05;14.78;84.80
65989;HTU21D;53592;51.402;6.054;2023-05-10T04:16:30;14.80;84.71
65989;HTU21D;53592;51.402;6.054;2023-05-10T04:18:56;14.80;84.71
65989;HTU21D;53592;51.402;6.054;2023-05-10T04:21:21;14.82;84.66
65989;HTU21D;53592;51.402;6.054;2023-05-10T04:23:47;14.84;84.54
65989;HTU21D;53592;51.402;6.054;2023-05-10T04:26:13;14.84;84.46
65989;HTU21D;53592;51.402;6.054;2023-05-10T04:28:38;14.82;84.61
65989;HTU21D;53592;51.402;6.054;2023-05-10T04:31:07;14.82;84.67
65989;HTU21D;53592;51.402;6.054;2023-05-10T04:33:33;14.83;84.68
65989;HTU21D;53592;51.402;6.054;2023-05-10T04:35:59;14.88;84.71
65989;HTU21D;53592;51.402;6.054;2023-05-10T04:38:25;14.91;84.68
65989;HTU21D;53592;51.402;6.054;2023-05-10T04:40:51;14.94;84.42
65989;HTU21D;53592;51.402;6.054;2023-05-10T04:43:16;14.95;84.42
65989;HTU21D;53592;51.402;6.054;2023-05-10T04:45:42;14.98;84.33
65989;HTU21D;53592;51.402;6.054;2023-05-10T04:48:07;15.01;84.22
65989;HTU21D;53592;51.402;6.054;2023-05-10T04:50:33;15.02;84.16
65989;HTU21D;53592;51.402;6.054;2023-05-10T04:52:58;15.06;84.12
65989;HTU21D;53592;51.402;6.054;2023-05-10T04:55:24;15.11;84.02
65989;HTU21D;53592;51.402;6.054;2023-05-10T04:57:50;15.14;83.91
65989;HTU21D;53592;51.402;6.054;2023-05-10T05:00:16;15.14;83.90
65989;HTU21D;53592;51.402;6.054;2023-05-10T05:02:43;15.17;83.85
65989;HTU21D;53592;51.402;6.054;2023-05-10T05:05:09;15.18;83.67
65989;HTU21D;53592;51.402;6.054;2023-05-10T05:07:35;15.17;83.55
65989;HTU21D;53592;51.402;6.054;2023-05-10T05:10:00;15.13;83.61
65989;HTU21D;53592;51.402;6.054;2023-05-10T05:12:26;15.10;83.73
65989;HTU21D;53592;51.402;6.054;2023-05-10T05:14:51;15.07;83.90
65989;HTU21D;53592;51.402;6.054;2023-05-10T05:17:17;15.03;84.03
65989;HTU21D;53592;51.402;6.054;2023-05-10T05:19:42;14.99;84.27
65989;HTU21D;53592;51.402;6.054;2023-05-10T05:22:08;14.97;84.45
65989;HTU21D;53592;51.402;6.054;2023-05-10T05:24:37;14.95;84.49
65989;HTU21D;53592;51.402;6.054;2023-05-10T05:27:03;14.96;84.56
65989;HTU21D;53592;51.402;6.054;2023-05-10T05:29:29;14.93;84.79
65989;HTU21D;53592;51.402;6.054;2023-05-10T05:31:55;14.94;84.88
65989;HTU21D;53592;51.402;6.054;2023-05-10T05:34:20;14.95;84.90
65989;HTU21D;53592;51.402;6.054;2023-05-10T05:36:47;14.97;84.87
65989;HTU21D;53592;51.402;6.054;2023-05-10T05:39:12;14.95;85.02
65989;HTU21D;53592;51.402;6.054;2023-05-10T05:41:38;14.93;84.99
65989;HTU21D;53592;51.402;6.054;2023-05-10T05:44:03;14.93;84.90
65989;HTU21D;53592;51.402;6.054;2023-05-10T05:46:29;14.91;84.96
65989;HTU21D;53592;51.402;6.054;2023-05-10T05:49:00;14.93;85.08
65989;HTU21D;53592;51.402;6.054;2023-05-10T05:51:26;14.95;84.97
65989;HTU21D;53592;51.402;6.054;2023-05-10T05:53:52;14.94;85.07
65989;HTU21D;53592;51.402;6.054;2023-05-10T05:56:18;14.93;85.12
65989;HTU21D;53592;51.402;6.054;2023-05-10T05:58:50;14.95;85.13
65989;HTU21D;53592;51.402;6.054;2023-05-10T06:01:15;14.99;85.02
65989;HTU21D;53592;51.402;6.054;2023-05-10T06:03:41;15.03;84.90
65989;HTU21D;53592;51.402;6.054;2023-05-10T06:06:06;15.06;84.68
65989;HTU21D;53592;51.402;6.054;2023-05-10T06:08:32;15.06;84.52
65989;HTU21D;53592;51.402;6.054;2023-05-10T06:10:59;15.08;84.48
65989;HTU21D;53592;51.402;6.054;2023-05-10T06:13:25;15.08;84.52
65989;HTU21D;53592;51.402;6.054;2023-05-10T06:15:54;15.09;84.50
65989;HTU21D;53592;51.402;6.054;2023-05-10T06:18:19;15.10;84.48
65989;HTU21D;53592;51.402;6.054;2023-05-10T06:20:45;15.12;84.38
65989;HTU21D;53592;51.402;6.054;2023-05-10T06:23:10;15.09;84.54
65989;HTU21D;53592;51.402;6.054;2023-05-10T06:25:36;15.11;84.45
65989;HTU21D;53592;51.402;6.054;2023-05-10T06:28:02;15.08;84.39
65989;HTU21D;53592;51.402;6.054;2023-05-10T06:30:27;15.10;84.34
65989;HTU21D;53592;51.402;6.054;2023-05-10T06:32:54;15.09;84.35
65989;HTU21D;53592;51.402;6.054;2023-05-10T06:35:20;15.06;84.28
65989;HTU21D;53592;51.402;6.054;2023-05-10T06:37:49;15.04;84.27
65989;HTU21D;53592;51.402;6.054;2023-05-10T06:40:15;15.06;84.10
65989;HTU21D;53592;51.402;6.054;2023-05-10T06:42:40;15.02;83.85
65989;HTU21D;53592;51.402;6.054;2023-05-10T06:45:07;15.01;83.71
65989;HTU21D;53592;51.402;6.054;2023-05-10T06:47:32;15.03;83.55
65989;HTU21D;53592;51.402;6.054;2023-05-10T06:49:58;15.03;83.42
65989;HTU21D;53592;51.402;6.054;2023-05-10T06:52:23;15.06;83.43
65989;HTU21D;53592;51.402;6.054;2023-05-10T06:54:49;15.08;83.47
65989;HTU21D;53592;51.402;6.054;2023-05-10T06:57:15;15.14;83.44
65989;HTU21D;53592;51.402;6.054;2023-05-10T06:59:40;15.19;83.26
65989;HTU21D;53592;51.402;6.054;2023-05-10T07:02:06;15.25;82.95
65989;HTU21D;53592;51.402;6.054;2023-05-10T07:04:31;15.28;82.79
65989;HTU21D;53592;51.402;6.054;2023-05-10T07:06:57;15.30;82.69
65989;HTU21D;53592;51.402;6.054;2023-05-10T07:09:23;15.33;82.50
65989;HTU21D;53592;51.402;6.054;2023-05-10T07:11:49;15.38;82.37
65989;HTU21D;53592;51.402;6.054;2023-05-10T07:14:15;15.41;81.99
65989;HTU21D;53592;51.402;6.054;2023-05-10T07:16:40;15.43;82.24
65989;HTU21D;53592;51.402;6.054;2023-05-10T07:19:06;15.43;81.92
65989;HTU21D;53592;51.402;6.054;2023-05-10T07:21:32;15.46;82.06
65989;HTU21D;53592;51.402;6.054;2023-05-10T07:23:57;15.53;82.06
65989;HTU21D;53592;51.402;6.054;2023-05-10T07:26:23;15.57;82.14
65989;HTU21D;53592;51.402;6.054;2023-05-10T07:28:49;15.63;81.99
65989;HTU21D;53592;51.402;6.054;2023-05-10T07:31:15;15.71;81.80
65989;HTU21D;53592;51.402;6.054;2023-05-10T07:33:40;15.74;81.50
65989;HTU21D;53592;51.402;6.054;2023-05-10T07:36:06;15.71;81.12
65989;HTU21D;53592;51.402;6.054;2023-05-10T07:38:32;15.69;80.91
65989;HTU21D;53592;51.402;6.054;2023-05-10T07:40:57;15.66;81.07
65989;HTU21D;53592;51.402;6.054;2023-05-10T07:43:23;15.68;81.22
65989;HTU21D;53592;51.402;6.054;2023-05-10T07:45:48;15.67;80.85
65989;HTU21D;53592;51.402;6.054;2023-05-10T07:48:14;15.66;80.88
65989;HTU21D;53592;51.402;6.054;2023-05-10T07:50:39;15.66;80.81
65989;HTU21D;53592;51.402;6.054;2023-05-10T07:53:05;15.66;80.66
65989;HTU21D;53592;51.402;6.054;2023-05-10T07:55:31;15.65;80.85
65989;HTU21D;53592;51.402;6.054;2023-05-10T07:57:57;15.66;80.86
65989;HTU21D;53592;51.402;6.054;2023-05-10T08:00:22;15.67;80.64
65989;HTU21D;53592;51.402;6.054;2023-05-10T08:02:48;15.62;80.66
65989;HTU21D;53592;51.402;6.054;2023-05-10T08:05:14;15.65;80.68
65989;HTU21D;53592;51.402;6.054;2023-05-10T08:07:39;15.63;80.56
65989;HTU21D;53592;51.402;6.054;2023-05-10T08:10:05;15.60;80.62
65989;HTU21D;53592;51.402;6.054;2023-05-10T08:12:31;15.59;80.58
65989;HTU21D;53592;51.402;6.054;2023-05-10T08:14:56;15.59;80.75
65989;HTU21D;53592;51.402;6.054;2023-05-10T08:17:22;15.62;80.94
65989;HTU21D;53592;51.402;6.054;2023-05-10T08:19:47;15.65;81.06
65989;HTU21D;53592;51.402;6.054;2023-05-10T08:22:13;15.68;81.05
65989;HTU21D;53592;51.402;6.054;2023-05-10T08:24:38;15.72;81.02
65989;HTU21D;53592;51.402;6.054;2023-05-10T08:27:05;15.77;81.05
65989;HTU21D;53592;51.402;6.054;2023-05-10T08:29:30;15.80;80.73
65989;HTU21D;53592;51.402;6.054;2023-05-10T08:31:56;15.80;80.77
65989;HTU21D;53592;51.402;6.054;2023-05-10T08:34:21;15.83;80.72
65989;HTU21D;53592;51.402;6.054;2023-05-10T08:36:47;15.82;80.75
65989;HTU21D;53592;51.402;6.054;2023-05-10T08:39:12;15.80;80.41
65989;HTU21D;53592;51.402;6.054;2023-05-10T08:41:39;15.80;80.73
65989;HTU21D;53592;51.402;6.054;2023-05-10T08:44:09;15.80;80.81
65989;HTU21D;53592;51.402;6.054;2023-05-10T08:46:37;15.83;80.70
65989;HTU21D;53592;51.402;6.054;2023-05-10T08:49:06;15.84;80.62
65989;HTU21D;53592;51.402;6.054;2023-05-10T08:51:36;15.87;80.58
65989;HTU21D;53592;51.402;6.054;2023-05-10T08:54:06;15.87;80.47
65989;HTU21D;53592;51.402;6.054;2023-05-10T08:56:32;15.90;80.48
65989;HTU21D;53592;51.402;6.054;2023-05-10T08:58:57;15.90;80.50
65989;HTU21D;53592;51.402;6.054;2023-05-10T09:01:25;15.92;80.45
65989;HTU21D;53592;51.402;6.054;2023-05-10T09:03:52;15.89;80.27
65989;HTU21D;53592;51.402;6.054;2023-05-10T09:06:18;15.85;80.44
65989;HTU21D;53592;51.402;6.054;2023-05-10T09:08:44;15.82;80.37
65989;HTU21D;53592;51.402;6.054;2023-05-10T09:11:12;15.78;80.40
65989;HTU21D;53592;51.402;6.054;2023-05-10T09:13:39;15.76;80.36
65989;HTU21D;53592;51.402;6.054;2023-05-10T09:16:04;15.73;80.40
65989;HTU21D;53592;51.402;6.054;2023-05-10T09:18:30;15.70;80.55
65989;HTU21D;53592;51.402;6.054;2023-05-10T09:20:56;15.65;80.71
65989;HTU21D;53592;51.402;6.054;2023-05-10T09:23:21;15.65;81.02
65989;HTU21D;53592;51.402;6.054;2023-05-10T09:25:47;15.67;81.07
65989;HTU21D;53592;51.402;6.054;2023-05-10T09:28:13;15.66;80.92
65989;HTU21D;53592;51.402;6.054;2023-05-10T09:30:38;15.66;80.83
65989;HTU21D;53592;51.402;6.054;2023-05-10T09:33:04;15.66;80.75
65989;HTU21D;53592;51.402;6.054;2023-05-10T09:35:31;15.69;80.88
65989;HTU21D;53592;51.402;6.054;2023-05-10T09:38:03;15.70;80.89
65989;HTU21D;53592;51.402;6.054;2023-05-10T09:40:30;15.69;80.89
65989;HTU21D;53592;51.402;6.054;2023-05-10T09:43:01;15.71;81.02
65989;HTU21D;53592;51.402;6.054;2023-05-10T09:45:29;15.70;80.98
65989;HTU21D;53592;51.402;6.054;2023-05-10T09:47:56;15.70;80.77
65989;HTU21D;53592;51.402;6.054;2023-05-10T09:50:22;15.66;80.78
65989;HTU21D;53592;51.402;6.054;2023-05-10T09:58:04;15.52;80.72
65989;HTU21D;53592;51.402;6.054;2023-05-10T10:00:37;15.46;80.94
65989;HTU21D;53592;51.402;6.054;2023-05-10T10:03:03;15.43;81.10
65989;HTU21D;53592;51.402;6.054;2023-05-10T10:05:35;15.37;81.36
65989;HTU21D;53592;51.402;6.054;2023-05-10T10:08:03;15.36;81.50
65989;HTU21D;53592;51.402;6.054;2023-05-10T10:10:33;15.33;81.69
65989;HTU21D;53592;51.402;6.054;2023-05-10T10:12:59;15.33;81.79
65989;HTU21D;53592;51.402;6.054;2023-05-10T10:15:25;15.34;81.92
65989;HTU21D;53592;51.402;6.054;2023-05-10T10:17:52;15.38;82.12
65989;HTU21D;53592;51.402;6.054;2023-05-10T10:20:21;15.43;82.22
65989;HTU21D;53592;51.402;6.054;2023-05-10T10:22:48;15.48;82.14
65989;HTU21D;53592;51.402;6.054;2023-05-10T10:25:19;15.52;81.76
65989;HTU21D;53592;51.402;6.054;2023-05-10T10:36:06;15.51;81.45
65989;HTU21D;53592;51.402;6.054;2023-05-10T10:52:26;15.72;80.94
65989;HTU21D;53592;51.402;6.054;2023-05-10T10:55:15;15.82;80.80
65989;HTU21D;53592;51.402;6.054;2023-05-10T10:57:48;15.92;80.69
65989;HTU21D;53592;51.402;6.054;2023-05-10T11:05:46;16.16;80.14
65989;HTU21D;53592;51.402;6.054;2023-05-10T11:08:31;16.34;79.88
65989;HTU21D;53592;51.402;6.054;2023-05-10T11:13:33;16.78;78.63
65989;HTU21D;53592;51.402;6.054;2023-05-10T11:16:18;16.99;78.08
65989;HTU21D;53592;51.402;6.054;2023-05-10T11:21:23;17.50;75.70
65989;HTU21D;53592;51.402;6.054;2023-05-10T11:23:53;17.68;75.86
65989;HTU21D;53592;51.402;6.054;2023-05-10T11:26:23;18.03;75.58
65989;HTU21D;53592;51.402;6.054;2023-05-10T11:28:52;18.33;74.12
65989;HTU21D;53592;51.402;6.054;2023-05-10T11:31:20;18.58;72.68
65989;HTU21D;53592;51.402;6.054;2023-05-10T11:36:15;18.74;70.52
65989;HTU21D;53592;51.402;6.054;2023-05-10T11:38:41;18.70;70.56
65989;HTU21D;53592;51.402;6.054;2023-05-10T11:41:11;18.68;70.11
65989;HTU21D;53592;51.402;6.054;2023-05-10T11:43:39;18.66;69.99
65989;HTU21D;53592;51.402;6.054;2023-05-10T11:46:10;18.69;70.21
65989;HTU21D;53592;51.402;6.054;2023-05-10T11:48:36;18.72;69.49
65989;HTU21D;53592;51.402;6.054;2023-05-10T11:51:03;18.72;69.30
65989;HTU21D;53592;51.402;6.054;2023-05-10T11:53:33;18.72;69.32
65989;HTU21D;53592;51.402;6.054;2023-05-10T11:56:11;18.80;68.82
65989;HTU21D;53592;51.402;6.054;2023-05-10T11:58:38;18.82;69.52
65989;HTU21D;53592;51.402;6.054;2023-05-10T12:01:06;18.92;70.12
65989;HTU21D;53592;51.402;6.054;2023-05-10T12:03:32;19.10;69.65
65989;HTU21D;53592;51.402;6.054;2023-05-10T12:05:59;19.12;68.35
65989;HTU21D;53592;51.402;6.054;2023-05-10T12:08:27;19.10;68.66
65989;HTU21D;53592;51.402;6.054;2023-05-10T12:11:09;19.11;69.00
65989;HTU21D;53592;51.402;6.054;2023-05-10T12:13:39;19.14;69.02
65989;HTU21D;53592;51.402;6.054;2023-05-10T12:16:22;19.21;68.86
65989;HTU21D;53592;51.402;6.054;2023-05-10T12:18:49;19.28;68.62
65989;HTU21D;53592;51.402;6.054;2023-05-10T12:21:16;19.27;68.11
65989;HTU21D;53592;51.402;6.054;2023-05-10T12:23:45;19.27;68.36
65989;HTU21D;53592;51.402;6.054;2023-05-10T12:26:11;19.30;68.77
65989;HTU21D;53592;51.402;6.054;2023-05-10T12:28:37;19.30;68.07
65989;HTU21D;53592;51.402;6.054;2023-05-10T12:31:06;19.23;67.55
65989;HTU21D;53592;51.402;6.054;2023-05-10T12:33:43;19.15;68.14
65989;HTU21D;53592;51.402;6.054;2023-05-10T12:36:10;19.15;68.01
65989;HTU21D;53592;51.402;6.054;2023-05-10T12:38:44;19.18;67.72
65989;HTU21D;53592;51.402;6.054;2023-05-10T12:41:15;19.25;68.02
65989;HTU21D;53592;51.402;6.054;2023-05-10T12:43:42;19.30;67.61
65989;HTU21D;53592;51.402;6.054;2023-05-10T12:46:13;19.35;66.96
65989;HTU21D;53592;51.402;6.054;2023-05-10T12:48:41;19.29;66.89
65989;HTU21D;53592;51.402;6.054;2023-05-10T12:51:07;19.29;67.58
65989;HTU21D;53592;51.402;6.054;2023-05-10T12:53:42;19.31;67.57
65989;HTU21D;53592;51.402;6.054;2023-05-10T12:56:08;19.30;67.01
65989;HTU21D;53592;51.402;6.054;2023-05-10T12:58:34;19.26;67.19
65989;HTU21D;53592;51.402;6.054;2023-05-10T13:01:00;19.23;67.73
65989;HTU21D;53592;51.402;6.054;2023-05-10T13:03:26;19.25;67.77
65989;HTU21D;53592;51.402;6.054;2023-05-10T13:05:51;19.26;68.10
65989;HTU21D;53592;51.402;6.054;2023-05-10T13:08:17;19.30;67.68
65989;HTU21D;53592;51.402;6.054;2023-05-10T13:10:42;19.32;67.19
65989;HTU21D;53592;51.402;6.054;2023-05-10T13:13:08;19.36;67.31
65989;HTU21D;53592;51.402;6.054;2023-05-10T13:15:34;19.44;67.79
65989;HTU21D;53592;51.402;6.054;2023-05-10T13:17:59;19.55;67.70
65989;HTU21D;53592;51.402;6.054;2023-05-10T13:20:25;19.70;67.09
65989;HTU21D;53592;51.402;6.054;2023-05-10T13:22:50;19.86;66.94
65989;HTU21D;53592;51.402;6.054;2023-05-10T13:25:16;19.92;66.67
65989;HTU21D;53592;51.402;6.054;2023-05-10T13:27:42;19.98;66.49
65989;HTU21D;53592;51.402;6.054;2023-05-10T13:30:09;20.02;66.07
65989;HTU21D;53592;51.402;6.054;2023-05-10T13:32:35;19.98;65.62
65989;HTU21D;53592;51.402;6.054;2023-05-10T13:35:01;19.91;65.82
65989;HTU21D;53592;51.402;6.054;2023-05-10T13:37:29;19.90;65.89
65989;HTU21D;53592;51.402;6.054;2023-05-10T13:39:55;19.89;65.92
65989;HTU21D;53592;51.402;6.054;2023-05-10T13:42:22;19.82;65.12
65989;HTU21D;53592;51.402;6.054;2023-05-10T13:44:48;19.71;64.40
65989;HTU21D;53592;51.402;6.054;2023-05-10T13:47:13;19.63;65.18
65989;HTU21D;53592;51.402;6.054;2023-05-10T13:49:39;19.54;65.17
65989;HTU21D;53592;51.402;6.054;2023-05-10T13:52:04;19.45;65.77
65989;HTU21D;53592;51.402;6.054;2023-05-10T13:54:35;19.43;66.55
65989;HTU21D;53592;51.402;6.054;2023-05-10T13:57:02;19.33;67.34
65989;HTU21D;53592;51.402;6.054;2023-05-10T13:59:28;19.33;68.10
65989;HTU21D;53592;51.402;6.054;2023-05-10T14:01:54;19.29;68.23
65989;HTU21D;53592;51.402;6.054;2023-05-10T14:04:20;19.38;68.04
65989;HTU21D;53592;51.402;6.054;2023-05-10T14:06:45;19.23;67.66
65989;HTU21D;53592;51.402;6.054;2023-05-10T14:09:11;19.22;68.13
65989;HTU21D;53592;51.402;6.054;2023-05-10T14:11:37;19.36;68.55
65989;HTU21D;53592;51.402;6.054;2023-05-10T14:14:02;19.54;68.58
65989;HTU21D;53592;51.402;6.054;2023-05-10T14:16:28;19.74;68.42
65989;HTU21D;53592;51.402;6.054;2023-05-10T14:18:54;19.92;67.33
65989;HTU21D;53592;51.402;6.054;2023-05-10T14:21:19;20.04;66.75
65989;HTU21D;53592;51.402;6.054;2023-05-10T14:23:45;19.97;65.25
65989;HTU21D;53592;51.402;6.054;2023-05-10T14:26:10;19.74;65.24
65989;HTU21D;53592;51.402;6.054;2023-05-10T14:28:36;19.62;66.16
65989;HTU21D;53592;51.402;6.054;2023-05-10T14:31:01;19.57;66.45
65989;HTU21D;53592;51.402;6.054;2023-05-10T14:33:27;19.58;66.75
65989;HTU21D;53592;51.402;6.054;2023-05-10T14:35:54;19.55;66.70
65989;HTU21D;53592;51.402;6.054;2023-05-10T14:38:21;19.40;66.50
65989;HTU21D;53592;51.402;6.054;2023-05-10T14:40:47;19.23;66.07
65989;HTU21D;53592;51.402;6.054;2023-05-10T14:43:12;19.11;67.23
65989;HTU21D;53592;51.402;6.054;2023-05-10T14:45:38;19.09;67.59
65989;HTU21D;53592;51.402;6.054;2023-05-10T14:48:03;18.98;67.34
65989;HTU21D;53592;51.402;6.054;2023-05-10T14:50:30;18.80;67.75
65989;HTU21D;53592;51.402;6.054;2023-05-10T14:52:56;18.64;68.21
65989;HTU21D;53592;51.402;6.054;2023-05-10T14:55:22;18.47;68.87
65989;HTU21D;53592;51.402;6.054;2023-05-10T14:57:48;18.30;69.83
65989;HTU21D;53592;51.402;6.054;2023-05-10T15:00:15;18.13;70.87
65989;HTU21D;53592;51.402;6.054;2023-05-10T15:02:41;17.94;71.99
65989;HTU21D;53592;51.402;6.054;2023-05-10T15:05:07;17.80;73.06
65989;HTU21D;53592;51.402;6.054;2023-05-10T15:07:32;17.67;73.61
65989;HTU21D;53592;51.402;6.054;2023-05-10T15:09:58;17.58;74.15
65989;HTU21D;53592;51.402;6.054;2023-05-10T15:12:23;17.40;74.67
65989;HTU21D;53592;51.402;6.054;2023-05-10T15:14:49;17.26;75.30
65989;HTU21D;53592;51.402;6.054;2023-05-10T15:17:14;17.09;76.11
65989;HTU21D;53592;51.402;6.054;2023-05-10T15:19:41;16.96;76.74
65989;HTU21D;53592;51.402;6.054;2023-05-10T15:22:07;16.92;77.52
65989;HTU21D;53592;51.402;6.054;2023-05-10T15:24:33;16.92;77.96
65989;HTU21D;53592;51.402;6.054;2023-05-10T15:26:58;16.89;78.18
65989;HTU21D;53592;51.402;6.054;2023-05-10T15:29:24;16.82;78.69
65989;HTU21D;53592;51.402;6.054;2023-05-10T15:31:50;16.85;79.12
65989;HTU21D;53592;51.402;6.054;2023-05-10T15:34:17;16.88;79.46
65989;HTU21D;53592;51.402;6.054;2023-05-10T15:36:43;16.93;79.49
65989;HTU21D;53592;51.402;6.054;2023-05-10T15:39:09;16.99;79.46
65989;HTU21D;53592;51.402;6.054;2023-05-10T15:41:35;17.03;79.37
65989;HTU21D;53592;51.402;6.054;2023-05-10T15:44:01;17.04;79.46
65989;HTU21D;53592;51.402;6.054;2023-05-10T15:46:27;17.07;79.13
65989;HTU21D;53592;51.402;6.054;2023-05-10T15:48:53;17.10;79.17
65989;HTU21D;53592;51.402;6.054;2023-05-10T15:51:18;17.10;78.98
65989;HTU21D;53592;51.402;6.054;2023-05-10T15:53:45;17.10;78.76
65989;HTU21D;53592;51.402;6.054;2023-05-10T15:56:11;17.08;78.69
65989;HTU21D;53592;51.402;6.054;2023-05-10T15:58:40;17.08;78.54
65989;HTU21D;53592;51.402;6.054;2023-05-10T16:01:06;17.02;78.54
65989;HTU21D;53592;51.402;6.054;2023-05-10T16:03:33;16.94;78.56
65989;HTU21D;53592;51.402;6.054;2023-05-10T16:05:59;16.87;78.80
65989;HTU21D;53592;51.402;6.054;2023-05-10T16:08:25;16.76;78.98
65989;HTU21D;53592;51.402;6.054;2023-05-10T16:10:51;16.62;79.14
65989;HTU21D;53592;51.402;6.054;2023-05-10T16:13:17;16.50;79.52